Terminal Aerodrome Forecast
Issued by NWS Cleveland, OH

Home | Current Version | Previous Version | Text Only | Print | Product List | Glossary Off
Versions: 1 2 3 4 5 6 7 8 9 10 11 12 13 14 15 16 17 18 19 20 21 22 23 24

000
FTUS41 KCLE 251300 AAA
TAFMFD
TAF AMD
KMFD 251315Z 2513/2612 16012G18KT 5SM BR SCT025 OVC050
      WS020/18045KT
      TEMPO 2513/2515 2SM -RA BR BKN025
     FM251500 21015G25KT P6SM VCSH OVC025
      TEMPO 2515/2517 BKN015 OVC025
     FM251900 24015G25KT P6SM BKN025 BKN045
     FM252100 24010G20KT P6SM SCT025 BKN250
     FM260000 21005KT P6SM SCT100 BKN250
     FM260900 36003KT P6SM VCSH BKN040 OVC100=

USA.gov is the U.S. government's official web portal to all federal, state and local government web resources and services.